sensor_id;sensor_type;location;lat;lon;timestamp;pressure;altitude;pressure_sealevel;temperature
76394;BMP180;65216;51.090;-115.352;2023-06-04T00:02:27;87176.20;;;23.00
76394;BMP180;65216;51.090;-115.352;2023-06-04T00:04:54;87182.60;;;23.00
76394;BMP180;65216;51.090;-115.352;2023-06-04T00:07:21;87185.20;;;23.00
76394;BMP180;65216;51.090;-115.352;2023-06-04T00:09:48;87180.60;;;22.98
76394;BMP180;65216;51.090;-115.352;2023-06-04T00:12:20;87179.60;;;23.00
76394;BMP180;65216;51.090;-115.352;2023-06-04T00:14:47;87179.40;;;23.00
76394;BMP180;65216;51.090;-115.352;2023-06-04T00:17:17;87175.40;;;23.00
76394;BMP180;65216;51.090;-115.352;2023-06-04T00:19:44;87169.00;;;23.00
76394;BMP180;65216;51.090;-115.352;2023-06-04T00:22:14;87171.40;;;23.00
76394;BMP180;65216;51.090;-115.352;2023-06-04T00:24:41;87173.80;;;23.00
76394;BMP180;65216;51.090;-115.352;2023-06-04T00:27:10;87174.20;;;23.00
76394;BMP180;65216;51.090;-115.352;2023-06-04T00:29:38;87166.20;;;23.04
76394;BMP180;65216;51.090;-115.352;2023-06-04T00:32:05;87174.40;;;23.10
76394;BMP180;65216;51.090;-115.352;2023-06-04T00:34:43;87165.20;;;23.10
76394;BMP180;65216;51.090;-115.352;2023-06-04T00:37:36;87173.40;;;23.10
76394;BMP180;65216;51.090;-115.352;2023-06-04T00:40:07;87164.40;;;23.14
76394;BMP180;65216;51.090;-115.352;2023-06-04T00:42:47;87161.60;;;23.20
76394;BMP180;65216;51.090;-115.352;2023-06-04T00:45:16;87155.60;;;23.20
76394;BMP180;65216;51.090;-115.352;2023-06-04T00:47:48;87164.40;;;23.20
76394;BMP180;65216;51.090;-115.352;2023-06-04T00:50:16;87144.00;;;23.20
76394;BMP180;65216;51.090;-115.352;2023-06-04T00:52:45;87159.40;;;23.28
76394;BMP180;65216;51.090;-115.352;2023-06-04T00:55:13;87153.80;;;23.30
76394;BMP180;65216;51.090;-115.352;2023-06-04T00:57:40;87150.60;;;23.30
76394;BMP180;65216;51.090;-115.352;2023-06-04T01:00:07;87150.00;;;23.30
76394;BMP180;65216;51.090;-115.352;2023-06-04T01:02:41;87151.00;;;23.30
76394;BMP180;65216;51.090;-115.352;2023-06-04T01:06:00;87154.60;;;23.30
76394;BMP180;65216;51.090;-115.352;2023-06-04T01:08:19;87147.80;;;23.30
76394;BMP180;65216;51.090;-115.352;2023-06-04T01:10:53;87152.40;;;23.30
76394;BMP180;65216;51.090;-115.352;2023-06-04T01:13:22;87155.20;;;23.30
76394;BMP180;65216;51.090;-115.352;2023-06-04T01:15:49;87157.40;;;23.30
76394;BMP180;65216;51.090;-115.352;2023-06-04T01:18:23;87161.60;;;23.30
76394;BMP180;65216;51.090;-115.352;2023-06-04T01:21:08;87153.60;;;23.30
76394;BMP180;65216;51.090;-115.352;2023-06-04T01:23:49;87156.60;;;23.30
76394;BMP180;65216;51.090;-115.352;2023-06-04T01:26:30;87142.20;;;23.38
76394;BMP180;65216;51.090;-115.352;2023-06-04T01:28:59;87143.00;;;23.36
76394;BMP180;65216;51.090;-115.352;2023-06-04T01:31:28;87142.00;;;23.36
76394;BMP180;65216;51.090;-115.352;2023-06-04T01:33:59;87141.60;;;23.40
76394;BMP180;65216;51.090;-115.352;2023-06-04T01:36:26;87147.80;;;23.40
76394;BMP180;65216;51.090;-115.352;2023-06-04T01:38:58;87148.40;;;23.34
76394;BMP180;65216;51.090;-115.352;2023-06-04T01:41:27;87144.60;;;23.38
76394;BMP180;65216;51.090;-115.352;2023-06-04T01:43:53;87142.60;;;23.34
76394;BMP180;65216;51.090;-115.352;2023-06-04T01:46:23;87144.20;;;23.30
76394;BMP180;65216;51.090;-115.352;2023-06-04T01:48:50;87137.40;;;23.30
76394;BMP180;65216;51.090;-115.352;2023-06-04T01:51:20;87144.80;;;23.30
76394;BMP180;65216;51.090;-115.352;2023-06-04T01:53:50;87135.80;;;23.36
76394;BMP180;65216;51.090;-115.352;2023-06-04T01:56:17;87137.00;;;23.40
76394;BMP180;65216;51.090;-115.352;2023-06-04T01:58:44;87143.80;;;23.40
76394;BMP180;65216;51.090;-115.352;2023-06-04T02:01:11;87142.60;;;23.30
76394;BMP180;65216;51.090;-115.352;2023-06-04T02:03:40;87144.00;;;23.30
76394;BMP180;65216;51.090;-115.352;2023-06-04T02:06:07;87138.80;;;23.30
76394;BMP180;65216;51.090;-115.352;2023-06-04T02:08:35;87141.40;;;23.30
76394;BMP180;65216;51.090;-115.352;2023-06-04T02:11:02;87144.80;;;23.30
76394;BMP180;65216;51.090;-115.352;2023-06-04T02:13:29;87140.40;;;23.30
76394;BMP180;65216;51.090;-115.352;2023-06-04T02:16:01;87141.40;;;23.30
76394;BMP180;65216;51.090;-115.352;2023-06-04T02:18:28;87143.60;;;23.24
76394;BMP180;65216;51.090;-115.352;2023-06-04T02:20:57;87138.00;;;23.22
76394;BMP180;65216;51.090;-115.352;2023-06-04T02:23:25;87143.20;;;23.20
76394;BMP180;65216;51.090;-115.352;2023-06-04T02:25:58;87149.80;;;23.20
76394;BMP180;65216;51.090;-115.352;2023-06-04T02:28:28;87149.40;;;23.20
76394;BMP180;65216;51.090;-115.352;2023-06-04T02:30:57;87160.60;;;23.20
76394;BMP180;65216;51.090;-115.352;2023-06-04T02:33:24;87153.00;;;23.20
76394;BMP180;65216;51.090;-115.352;2023-06-04T02:35:51;87154.60;;;23.20
76394;BMP180;65216;51.090;-115.352;2023-06-04T02:38:19;87164.80;;;23.16
76394;BMP180;65216;51.090;-115.352;2023-06-04T02:40:46;87157.40;;;23.10
76394;BMP180;65216;51.090;-115.352;2023-06-04T02:43:13;87163.40;;;23.10
76394;BMP180;65216;51.090;-115.352;2023-06-04T02:45:40;87159.00;;;23.10
76394;BMP180;65216;51.090;-115.352;2023-06-04T02:48:07;87161.20;;;23.10
76394;BMP180;65216;51.090;-115.352;2023-06-04T02:50:37;87160.20;;;23.00
76394;BMP180;65216;51.090;-115.352;2023-06-04T02:53:05;87158.40;;;23.00
76394;BMP180;65216;51.090;-115.352;2023-06-04T02:55:32;87160.20;;;23.00
76394;BMP180;65216;51.090;-115.352;2023-06-04T02:58:00;87152.60;;;23.00
76394;BMP180;65216;51.090;-115.352;2023-06-04T03:00:27;87159.00;;;23.00
76394;BMP180;65216;51.090;-115.352;2023-06-04T03:02:54;87164.20;;;23.00
76394;BMP180;65216;51.090;-115.352;2023-06-04T03:05:27;87163.60;;;22.90
76394;BMP180;65216;51.090;-115.352;2023-06-04T03:07:57;87166.40;;;22.90
76394;BMP180;65216;51.090;-115.352;2023-06-04T03:10:25;87164.00;;;22.90
76394;BMP180;65216;51.090;-115.352;2023-06-04T03:12:52;87162.00;;;22.82
76394;BMP180;65216;51.090;-115.352;2023-06-04T03:15:19;87166.00;;;22.80
76394;BMP180;65216;51.090;-115.352;2023-06-04T03:17:48;87165.80;;;22.80
76394;BMP180;65216;51.090;-115.352;2023-06-04T03:20:18;87175.40;;;22.80
76394;BMP180;65216;51.090;-115.352;2023-06-04T03:22:45;87179.40;;;22.76
76394;BMP180;65216;51.090;-115.352;2023-06-04T03:25:12;87174.40;;;22.70
76394;BMP180;65216;51.090;-115.352;2023-06-04T03:27:39;87173.20;;;22.70
76394;BMP180;65216;51.090;-115.352;2023-06-04T03:30:07;87174.00;;;22.70
76394;BMP180;65216;51.090;-115.352;2023-06-04T03:32:35;87175.80;;;22.70
76394;BMP180;65216;51.090;-115.352;2023-06-04T03:35:02;87176.20;;;22.70
76394;BMP180;65216;51.090;-115.352;2023-06-04T03:37:29;87177.60;;;22.62
76394;BMP180;65216;51.090;-115.352;2023-06-04T03:40:01;87178.40;;;22.60
76394;BMP180;65216;51.090;-115.352;2023-06-04T03:42:32;87177.60;;;22.60
76394;BMP180;65216;51.090;-115.352;2023-06-04T03:44:59;87181.00;;;22.60
76394;BMP180;65216;51.090;-115.352;2023-06-04T03:47:26;87184.80;;;22.60
76394;BMP180;65216;51.090;-115.352;2023-06-04T03:49:53;87184.20;;;22.60
76394;BMP180;65216;51.090;-115.352;2023-06-04T03:52:20;87187.00;;;22.60
76394;BMP180;65216;51.090;-115.352;2023-06-04T03:54:47;87187.80;;;22.58
76394;BMP180;65216;51.090;-115.352;2023-06-04T03:57:14;87188.80;;;22.58
76394;BMP180;65216;51.090;-115.352;2023-06-04T03:59:41;87190.40;;;22.58
76394;BMP180;65216;51.090;-115.352;2023-06-04T04:02:11;87195.00;;;22.60
76394;BMP180;65216;51.090;-115.352;2023-06-04T04:04:37;87200.20;;;22.50
76394;BMP180;65216;51.090;-115.352;2023-06-04T04:07:07;87202.80;;;22.50
76394;BMP180;65216;51.090;-115.352;2023-06-04T04:09:34;87197.80;;;22.50
76394;BMP180;65216;51.090;-115.352;2023-06-04T04:12:05;87201.80;;;22.50
76394;BMP180;65216;51.090;-115.352;2023-06-04T04:14:34;87204.80;;;22.50
76394;BMP180;65216;51.090;-115.352;2023-06-04T04:17:01;87206.20;;;22.50
76394;BMP180;65216;51.090;-115.352;2023-06-04T04:19:28;87212.20;;;22.50
76394;BMP180;65216;51.090;-115.352;2023-06-04T04:21:55;87215.60;;;22.46
76394;BMP180;65216;51.090;-115.352;2023-06-04T04:24:27;87212.60;;;22.40
76394;BMP180;65216;51.090;-115.352;2023-06-04T04:26:56;87212.80;;;22.40
76394;BMP180;65216;51.090;-115.352;2023-06-04T04:29:26;87213.20;;;22.40
76394;BMP180;65216;51.090;-115.352;2023-06-04T04:31:54;87212.20;;;22.40
76394;BMP180;65216;51.090;-115.352;2023-06-04T04:34:30;87208.60;;;22.40
76394;BMP180;65216;51.090;-115.352;2023-06-04T04:36:58;87210.80;;;22.40
76394;BMP180;65216;51.090;-115.352;2023-06-04T04:39:28;87209.00;;;22.40
76394;BMP180;65216;51.090;-115.352;2023-06-04T04:41:55;87209.00;;;22.40
76394;BMP180;65216;51.090;-115.352;2023-06-04T04:44:22;87210.60;;;22.40
76394;BMP180;65216;51.090;-115.352;2023-06-04T04:46:49;87205.20;;;22.36
76394;BMP180;65216;51.090;-115.352;2023-06-04T04:49:16;87209.20;;;22.30
76394;BMP180;65216;51.090;-115.352;2023-06-04T04:51:43;87205.00;;;22.32
76394;BMP180;65216;51.090;-115.352;2023-06-04T04:54:10;87209.20;;;22.30
76394;BMP180;65216;51.090;-115.352;2023-06-04T04:56:37;87203.80;;;22.30
76394;BMP180;65216;51.090;-115.352;2023-06-04T04:59:06;87208.40;;;22.30
76394;BMP180;65216;51.090;-115.352;2023-06-04T05:01:36;87208.20;;;22.30
76394;BMP180;65216;51.090;-115.352;2023-06-04T05:04:03;87206.60;;;22.30
76394;BMP180;65216;51.090;-115.352;2023-06-04T05:06:30;87203.00;;;22.30
76394;BMP180;65216;51.090;-115.352;2023-06-04T05:08:57;87197.60;;;22.28
76394;BMP180;65216;51.090;-115.352;2023-06-04T05:11:24;87196.40;;;22.28
76394;BMP180;65216;51.090;-115.352;2023-06-04T05:13:52;87198.40;;;22.22
76394;BMP180;65216;51.090;-115.352;2023-06-04T05:16:19;87199.80;;;22.20
76394;BMP180;65216;51.090;-115.352;2023-06-04T05:18:46;87199.60;;;22.20
76394;BMP180;65216;51.090;-115.352;2023-06-04T05:21:14;87196.60;;;22.20
76394;BMP180;65216;51.090;-115.352;2023-06-04T05:23:41;87197.60;;;22.20
76394;BMP180;65216;51.090;-115.352;2023-06-04T05:26:08;87194.80;;;22.20
76394;BMP180;65216;51.090;-115.352;2023-06-04T05:28:41;87194.40;;;22.20
76394;BMP180;65216;51.090;-115.352;2023-06-04T05:31:10;87195.40;;;22.20
76394;BMP180;65216;51.090;-115.352;2023-06-04T05:33:39;87194.60;;;22.20
76394;BMP180;65216;51.090;-115.352;2023-06-04T05:36:06;87191.60;;;22.20
76394;BMP180;65216;51.090;-115.352;2023-06-04T05:38:33;87192.60;;;22.20
76394;BMP180;65216;51.090;-115.352;2023-06-04T05:41:04;87192.80;;;22.20
76394;BMP180;65216;51.090;-115.352;2023-06-04T05:43:34;87190.40;;;22.20
76394;BMP180;65216;51.090;-115.352;2023-06-04T05:46:00;87190.60;;;22.20
76394;BMP180;65216;51.090;-115.352;2023-06-04T05:48:27;87189.80;;;22.20
76394;BMP180;65216;51.090;-115.352;2023-06-04T05:50:55;87191.20;;;22.20
76394;BMP180;65216;51.090;-115.352;2023-06-04T05:53:24;87191.00;;;22.10
76394;BMP180;65216;51.090;-115.352;2023-06-04T05:55:51;87192.00;;;22.10
76394;BMP180;65216;51.090;-115.352;2023-06-04T05:58:18;87188.00;;;22.10
76394;BMP180;65216;51.090;-115.352;2023-06-04T06:00:45;87190.20;;;22.10
76394;BMP180;65216;51.090;-115.352;2023-06-04T06:03:12;87194.00;;;22.10
76394;BMP180;65216;51.090;-115.352;2023-06-04T06:05:43;87190.00;;;22.10
76394;BMP180;65216;51.090;-115.352;2023-06-04T06:08:14;87195.20;;;22.10
76394;BMP180;65216;51.090;-115.352;2023-06-04T06:10:41;87194.20;;;22.08
76394;BMP180;65216;51.090;-115.352;2023-06-04T06:13:08;87195.20;;;22.02
76394;BMP180;65216;51.090;-115.352;2023-06-04T06:15:38;87190.80;;;22.00
76394;BMP180;65216;51.090;-115.352;2023-06-04T06:18:05;87194.80;;;22.00
76394;BMP180;65216;51.090;-115.352;2023-06-04T06:20:32;87197.00;;;22.00
76394;BMP180;65216;51.090;-115.352;2023-06-04T06:23:07;87197.60;;;22.00
76394;BMP180;65216;51.090;-115.352;2023-06-04T06:25:34;87196.00;;;21.94
76394;BMP180;65216;51.090;-115.352;2023-06-04T06:28:01;87196.60;;;21.90
76394;BMP180;65216;51.090;-115.352;2023-06-04T06:30:27;87197.60;;;21.90
76394;BMP180;65216;51.090;-115.352;2023-06-04T06:32:54;87200.60;;;21.90
76394;BMP180;65216;51.090;-115.352;2023-06-04T06:35:24;87198.60;;;21.90
76394;BMP180;65216;51.090;-115.352;2023-06-04T06:37:51;87195.00;;;21.82
76394;BMP180;65216;51.090;-115.352;2023-06-04T06:40:19;87198.80;;;21.80
76394;BMP180;65216;51.090;-115.352;2023-06-04T06:42:50;87201.60;;;21.80
76394;BMP180;65216;51.090;-115.352;2023-06-04T06:45:18;87204.80;;;21.80
76394;BMP180;65216;51.090;-115.352;2023-06-04T06:47:45;87201.80;;;21.80
76394;BMP180;65216;51.090;-115.352;2023-06-04T06:50:15;87204.60;;;21.80
76394;BMP180;65216;51.090;-115.352;2023-06-04T06:52:45;87200.80;;;21.80
76394;BMP180;65216;51.090;-115.352;2023-06-04T06:55:12;87202.20;;;21.80
76394;BMP180;65216;51.090;-115.352;2023-06-04T06:57:39;87204.20;;;21.70
76394;BMP180;65216;51.090;-115.352;2023-06-04T07:00:07;87204.80;;;21.70
76394;BMP180;65216;51.090;-115.352;2023-06-04T07:02:34;87204.40;;;21.70
76394;BMP180;65216;51.090;-115.352;2023-06-04T07:05:01;87202.00;;;21.70
76394;BMP180;65216;51.090;-115.352;2023-06-04T07:07:28;87204.20;;;21.70
76394;BMP180;65216;51.090;-115.352;2023-06-04T07:09:55;87210.60;;;21.70
76394;BMP180;65216;51.090;-115.352;2023-06-04T07:12:22;87209.80;;;21.64
76394;BMP180;65216;51.090;-115.352;2023-06-04T07:14:52;87207.20;;;21.60
76394;BMP180;65216;51.090;-115.352;2023-06-04T07:17:19;87206.40;;;21.60
76394;BMP180;65216;51.090;-115.352;2023-06-04T07:19:48;87211.60;;;21.60
76394;BMP180;65216;51.090;-115.352;2023-06-04T07:22:15;87211.80;;;21.60
76394;BMP180;65216;51.090;-115.352;2023-06-04T07:24:44;87207.40;;;21.60
76394;BMP180;65216;51.090;-115.352;2023-06-04T07:27:15;87207.80;;;21.60
76394;BMP180;65216;51.090;-115.352;2023-06-04T07:29:44;87206.60;;;21.60
76394;BMP180;65216;51.090;-115.352;2023-06-04T07:32:12;87210.00;;;21.60
76394;BMP180;65216;51.090;-115.352;2023-06-04T07:34:39;87209.20;;;21.54
76394;BMP180;65216;51.090;-115.352;2023-06-04T07:37:06;87203.20;;;21.50
76394;BMP180;65216;51.090;-115.352;2023-06-04T07:39:34;87203.20;;;21.50
76394;BMP180;65216;51.090;-115.352;2023-06-04T07:42:01;87202.80;;;21.50
76394;BMP180;65216;51.090;-115.352;2023-06-04T07:44:28;87202.40;;;21.50
76394;BMP180;65216;51.090;-115.352;2023-06-04T07:46:55;87207.60;;;21.50
76394;BMP180;65216;51.090;-115.352;2023-06-04T07:49:22;87206.60;;;21.50
76394;BMP180;65216;51.090;-115.352;2023-06-04T07:51:49;87203.20;;;21.50
76394;BMP180;65216;51.090;-115.352;2023-06-04T07:54:16;87203.20;;;21.50
76394;BMP180;65216;51.090;-115.352;2023-06-04T07:56:43;87198.80;;;21.48
76394;BMP180;65216;51.090;-115.352;2023-06-04T07:59:10;87194.80;;;21.42
76394;BMP180;65216;51.090;-115.352;2023-06-04T08:01:37;87198.20;;;21.40
76394;BMP180;65216;51.090;-115.352;2023-06-04T08:04:04;87194.60;;;21.40
76394;BMP180;65216;51.090;-115.352;2023-06-04T08:06:31;87197.80;;;21.40
76394;BMP180;65216;51.090;-115.352;2023-06-04T08:09:00;87199.40;;;21.40
76394;BMP180;65216;51.090;-115.352;2023-06-04T08:11:27;87195.60;;;21.40
76394;BMP180;65216;51.090;-115.352;2023-06-04T08:13:56;87199.80;;;21.40
76394;BMP180;65216;51.090;-115.352;2023-06-04T08:16:26;87198.00;;;21.40
76394;BMP180;65216;51.090;-115.352;2023-06-04T08:18:53;87196.80;;;21.42
76394;BMP180;65216;51.090;-115.352;2023-06-04T08:21:28;87199.40;;;21.44
76394;BMP180;65216;51.090;-115.352;2023-06-04T08:23:55;87199.00;;;21.50
76394;BMP180;65216;51.090;-115.352;2023-06-04T08:26:23;87202.40;;;21.50
76394;BMP180;65216;51.090;-115.352;2023-06-04T08:28:51;87200.20;;;21.50
76394;BMP180;65216;51.090;-115.352;2023-06-04T08:31:18;87200.00;;;21.50
76394;BMP180;65216;51.090;-115.352;2023-06-04T08:33:48;87204.80;;;21.50
76394;BMP180;65216;51.090;-115.352;2023-06-04T08:36:15;87203.20;;;21.50
76394;BMP180;65216;51.090;-115.352;2023-06-04T08:38:42;87201.80;;;21.50
76394;BMP180;65216;51.090;-115.352;2023-06-04T08:41:20;87197.00;;;21.50
76394;BMP180;65216;51.090;-115.352;2023-06-04T08:43:50;87198.00;;;21.50
76394;BMP180;65216;51.090;-115.352;2023-06-04T08:46:20;87198.40;;;21.48
76394;BMP180;65216;51.090;-115.352;2023-06-04T08:48:50;87198.80;;;21.42
76394;BMP180;65216;51.090;-115.352;2023-06-04T08:51:18;87192.40;;;21.40
76394;BMP180;65216;51.090;-115.352;2023-06-04T08:53:45;87197.00;;;21.40
76394;BMP180;65216;51.090;-115.352;2023-06-04T08:56:16;87196.20;;;21.40
76394;BMP180;65216;51.090;-115.352;2023-06-04T08:58:48;87194.80;;;21.40
76394;BMP180;65216;51.090;-115.352;2023-06-04T09:01:16;87195.60;;;21.40
76394;BMP180;65216;51.090;-115.352;2023-06-04T09:03:45;87191.60;;;21.40
76394;BMP180;65216;51.090;-115.352;2023-06-04T09:06:15;87193.80;;;21.40
76394;BMP180;65216;51.090;-115.352;2023-06-04T09:08:44;87195.40;;;21.40
76394;BMP180;65216;51.090;-115.352;2023-06-04T09:11:15;87194.60;;;21.40
76394;BMP180;65216;51.090;-115.352;2023-06-04T09:13:47;87192.00;;;21.40
76394;BMP180;65216;51.090;-115.352;2023-06-04T09:16:14;87194.60;;;21.40
76394;BMP180;65216;51.090;-115.352;2023-06-04T09:18:42;87195.60;;;21.40
76394;BMP180;65216;51.090;-115.352;2023-06-04T09:21:10;87191.20;;;21.40
76394;BMP180;65216;51.090;-115.352;2023-06-04T09:23:47;87185.80;;;21.40
76394;BMP180;65216;51.090;-115.352;2023-06-04T09:26:14;87183.20;;;21.40
76394;BMP180;65216;51.090;-115.352;2023-06-04T09:28:43;87186.20;;;21.40
76394;BMP180;65216;51.090;-115.352;2023-06-04T09:31:17;87183.40;;;21.40
76394;BMP180;65216;51.090;-115.352;2023-06-04T09:33:45;87184.80;;;21.40
76394;BMP180;65216;51.090;-115.352;2023-06-04T09:36:16;87186.00;;;21.40
76394;BMP180;65216;51.090;-115.352;2023-06-04T09:38:43;87187.00;;;21.40
76394;BMP180;65216;51.090;-115.352;2023-06-04T09:41:17;87185.20;;;21.40
76394;BMP180;65216;51.090;-115.352;2023-06-04T09:43:46;87183.00;;;21.40
76394;BMP180;65216;51.090;-115.352;2023-06-04T09:46:20;87182.40;;;21.40
76394;BMP180;65216;51.090;-115.352;2023-06-04T09:49:03;87181.40;;;21.40
76394;BMP180;65216;51.090;-115.352;2023-06-04T09:51:31;87181.20;;;21.40
76394;BMP180;65216;51.090;-115.352;2023-06-04T09:54:01;87179.40;;;21.40
76394;BMP180;65216;51.090;-115.352;2023-06-04T09:56:29;87186.00;;;21.34
76394;BMP180;65216;51.090;-115.352;2023-06-04T09:59:05;87187.40;;;21.30
76394;BMP180;65216;51.090;-115.352;2023-06-04T10:01:38;87184.40;;;21.30
76394;BMP180;65216;51.090;-115.352;2023-06-04T10:04:08;87187.60;;;21.30
76394;BMP180;65216;51.090;-115.352;2023-06-04T10:06:39;87184.80;;;21.30
76394;BMP180;65216;51.090;-115.352;2023-06-04T10:09:08;87184.40;;;21.30
76394;BMP180;65216;51.090;-115.352;2023-06-04T10:11:45;87183.60;;;21.24
76394;BMP180;65216;51.090;-115.352;2023-06-04T10:14:21;87182.20;;;21.20
76394;BMP180;65216;51.090;-115.352;2023-06-04T10:16:52;87181.60;;;21.20
76394;BMP180;65216;51.090;-115.352;2023-06-04T10:19:20;87184.20;;;21.20
76394;BMP180;65216;51.090;-115.352;2023-06-04T10:21:48;87182.20;;;21.20
76394;BMP180;65216;51.090;-115.352;2023-06-04T10:24:17;87180.40;;;21.18
76394;BMP180;65216;51.090;-115.352;2023-06-04T10:26:47;87183.80;;;21.16
76394;BMP180;65216;51.090;-115.352;2023-06-04T10:29:15;87180.20;;;21.12
76394;BMP180;65216;51.090;-115.352;2023-06-04T10:31:43;87179.60;;;21.10
76394;BMP180;65216;51.090;-115.352;2023-06-04T10:34:12;87181.00;;;21.10
76394;BMP180;65216;51.090;-115.352;2023-06-04T10:36:46;87181.80;;;21.10
76394;BMP180;65216;51.090;-115.352;2023-06-04T10:39:25;87178.20;;;21.10
76394;BMP180;65216;51.090;-115.352;2023-06-04T10:42:03;87176.00;;;21.10
76394;BMP180;65216;51.090;-115.352;2023-06-04T10:44:48;87175.80;;;21.10
76394;BMP180;65216;51.090;-115.352;2023-06-04T10:47:33;87167.60;;;21.10
76394;BMP180;65216;51.090;-115.352;2023-06-04T10:50:11;87170.40;;;21.04
76394;BMP180;65216;51.090;-115.352;2023-06-04T10:52:54;87166.20;;;21.00
76394;BMP180;65216;51.090;-115.352;2023-06-04T10:55:23;87164.40;;;21.00
76394;BMP180;65216;51.090;-115.352;2023-06-04T10:57:58;87167.80;;;21.00
76394;BMP180;65216;51.090;-115.352;2023-06-04T11:00:43;87168.60;;;21.00
76394;BMP180;65216;51.090;-115.352;2023-06-04T11:03:16;87167.80;;;21.00
76394;BMP180;65216;51.090;-115.352;2023-06-04T11:05:47;87169.40;;;21.00
76394;BMP180;65216;51.090;-115.352;2023-06-04T11:08:28;87170.20;;;21.00
76394;BMP180;65216;51.090;-115.352;2023-06-04T11:10:58;87174.40;;;21.00
76394;BMP180;65216;51.090;-115.352;2023-06-04T11:13:25;87170.60;;;21.00
76394;BMP180;65216;51.090;-115.352;2023-06-04T11:15:52;87169.00;;;21.00
76394;BMP180;65216;51.090;-115.352;2023-06-04T11:18:22;87165.20;;;21.00
76394;BMP180;65216;51.090;-115.352;2023-06-04T11:21:00;87165.80;;;21.00
76394;BMP180;65216;51.090;-115.352;2023-06-04T11:23:28;87167.00;;;21.00
76394;BMP180;65216;51.090;-115.352;2023-06-04T11:25:58;87166.00;;;21.00
76394;BMP180;65216;51.090;-115.352;2023-06-04T11:28:28;87163.60;;;21.00
76394;BMP180;65216;51.090;-115.352;2023-06-04T11:31:01;87164.40;;;21.00
76394;BMP180;65216;51.090;-115.352;2023-06-04T11:33:45;87168.20;;;21.00
76394;BMP180;65216;51.090;-115.352;2023-06-04T11:36:29;87168.40;;;21.00
76394;BMP180;65216;51.090;-115.352;2023-06-04T11:39:01;87165.80;;;21.00
76394;BMP180;65216;51.090;-115.352;2023-06-04T11:41:35;87169.60;;;21.00
76394;BMP180;65216;51.090;-115.352;2023-06-04T11:44:06;87166.40;;;21.00
76394;BMP180;65216;51.090;-115.352;2023-06-04T11:46:34;87168.00;;;21.00
76394;BMP180;65216;51.090;-115.352;2023-06-04T11:49:03;87167.20;;;21.00
76394;BMP180;65216;51.090;-115.352;2023-06-04T11:51:31;87170.80;;;21.00
76394;BMP180;65216;51.090;-115.352;2023-06-04T11:53:58;87174.60;;;21.00
76394;BMP180;65216;51.090;-115.352;2023-06-04T11:56:26;87172.80;;;21.00
76394;BMP180;65216;51.090;-115.352;2023-06-04T11:58:55;87175.00;;;21.00
76394;BMP180;65216;51.090;-115.352;2023-06-04T12:01:22;87174.20;;;21.00
76394;BMP180;65216;51.090;-115.352;2023-06-04T12:03:49;87179.00;;;21.00
76394;BMP180;65216;51.090;-115.352;2023-06-04T12:06:18;87178.40;;;21.00
76394;BMP180;65216;51.090;-115.352;2023-06-04T12:08:52;87179.40;;;21.00
76394;BMP180;65216;51.090;-115.352;2023-06-04T12:11:31;87176.20;;;21.00
76394;BMP180;65216;51.090;-115.352;2023-06-04T12:14:06;87179.00;;;21.00
76394;BMP180;65216;51.090;-115.352;2023-06-04T12:16:36;87178.00;;;21.00
76394;BMP180;65216;51.090;-115.352;2023-06-04T12:19:12;87179.00;;;21.00
76394;BMP180;65216;51.090;-115.352;2023-06-04T12:21:40;87176.40;;;21.00
76394;BMP180;65216;51.090;-115.352;2023-06-04T12:24:14;87174.60;;;21.00
76394;BMP180;65216;51.090;-115.352;2023-06-04T12:26:44;87173.80;;;21.00
76394;BMP180;65216;51.090;-115.352;2023-06-04T12:29:14;87178.00;;;21.00
76394;BMP180;65216;51.090;-115.352;2023-06-04T12:31:44;87175.00;;;21.00
76394;BMP180;65216;51.090;-115.352;2023-06-04T12:34:15;87177.00;;;21.00
76394;BMP180;65216;51.090;-115.352;2023-06-04T12:36:44;87177.00;;;21.00
76394;BMP180;65216;51.090;-115.352;2023-06-04T12:39:10;87183.80;;;21.00
76394;BMP180;65216;51.090;-115.352;2023-06-04T12:41:37;87187.80;;;21.00
76394;BMP180;65216;51.090;-115.352;2023-06-04T12:44:04;87181.20;;;21.00
76394;BMP180;65216;51.090;-115.352;2023-06-04T12:46:33;87176.80;;;21.00
76394;BMP180;65216;51.090;-115.352;2023-06-04T12:49:01;87189.20;;;21.00
76394;BMP180;65216;51.090;-115.352;2023-06-04T12:51:27;87185.00;;;21.00
76394;BMP180;65216;51.090;-115.352;2023-06-04T12:53:54;87184.20;;;21.00
76394;BMP180;65216;51.090;-115.352;2023-06-04T12:56:21;87181.60;;;21.00
76394;BMP180;65216;51.090;-115.352;2023-06-04T12:58:48;87182.40;;;21.08
76394;BMP180;65216;51.090;-115.352;2023-06-04T13:01:15;87185.40;;;21.06
76394;BMP180;65216;51.090;-115.352;2023-06-04T13:03:43;87187.20;;;21.10
76394;BMP180;65216;51.090;-115.352;2023-06-04T13:06:10;87183.80;;;21.10
76394;BMP180;65216;51.090;-115.352;2023-06-04T13:08:37;87191.20;;;21.10
76394;BMP180;65216;51.090;-115.352;2023-06-04T13:11:04;87189.80;;;21.10
76394;BMP180;65216;51.090;-115.352;2023-06-04T13:13:32;87188.20;;;21.10
76394;BMP180;65216;51.090;-115.352;2023-06-04T13:15:58;87189.40;;;21.10
76394;BMP180;65216;51.090;-115.352;2023-06-04T13:18:26;87191.80;;;21.10
76394;BMP180;65216;51.090;-115.352;2023-06-04T13:20:53;87196.40;;;21.14
76394;BMP180;65216;51.090;-115.352;2023-06-04T13:23:21;87195.40;;;21.16
76394;BMP180;65216;51.090;-115.352;2023-06-04T13:25:50;87195.40;;;21.20
76394;BMP180;65216;51.090;-115.352;2023-06-04T13:28:17;87192.80;;;21.20
76394;BMP180;65216;51.090;-115.352;2023-06-04T13:30:44;87196.40;;;21.20
76394;BMP180;65216;51.090;-115.352;2023-06-04T13:33:12;87192.00;;;21.20
76394;BMP180;65216;51.090;-115.352;2023-06-04T13:35:39;87194.40;;;21.20
76394;BMP180;65216;51.090;-115.352;2023-06-04T13:38:06;87196.60;;;21.20
76394;BMP180;65216;51.090;-115.352;2023-06-04T13:40:36;87195.80;;;21.20
76394;BMP180;65216;51.090;-115.352;2023-06-04T13:43:05;87199.60;;;21.20
76394;BMP180;65216;51.090;-115.352;2023-06-04T13:45:35;87195.20;;;21.20